Terminal Aerodrome Forecast
Issued by NWS Albany, NY

Home | Current Version | Previous Version | Text Only | Print | Product List | Glossary On
Versions: 1 2 3 4 5 6 7 8 9 10 11 12 13 14 15
000
FTUS41 KALY 242336
TAFPOU
TAF
KPOU 242336Z 2500/2524 VRB03KT P6SM BKN140 BKN250
     FM250800 19004KT P6SM VCSH BKN080 OVC140
     FM251700 22008G15KT P6SM SCT070 PROB30 2520/2524 VRB15G30KT 3SM
      SHRA BR BKN070=

USA.gov is the U.S. government's official web portal to all federal, state and local government web resources and services.